createdAt,value
2022-08-27T00:00:15.644Z,17.10
2022-08-27T00:02:42.425Z,17.10
2022-08-27T00:05:09.170Z,17.10
2022-08-27T00:07:35.942Z,17.00
2022-08-27T00:10:02.723Z,17.00
2022-08-27T00:12:30.354Z,17.00
2022-08-27T00:14:58.866Z,17.00
2022-08-27T00:17:25.612Z,17.00
2022-08-27T00:19:52.471Z,16.90
2022-08-27T00:22:19.225Z,16.90
2022-08-27T00:24:49.145Z,16.90
2022-08-27T00:27:16.045Z,16.90
2022-08-27T00:29:43.545Z,16.90
2022-08-27T00:32:10.346Z,16.80
2022-08-27T00:34:37.151Z,16.80
2022-08-27T00:37:03.957Z,16.80
2022-08-27T00:39:30.710Z,16.80
2022-08-27T00:41:57.510Z,16.70
2022-08-27T00:44:24.291Z,16.70
2022-08-27T00:46:51.024Z,16.70
2022-08-27T00:49:18.314Z,16.70
2022-08-27T00:51:45.059Z,16.70
2022-08-27T00:54:18.944Z,16.60
2022-08-27T00:56:51.431Z,16.60
2022-08-27T00:59:18.826Z,16.50
2022-08-27T01:02:04.137Z,16.50
2022-08-27T01:04:30.929Z,16.50
2022-08-27T01:06:57.659Z,16.40
2022-08-27T01:09:24.451Z,16.40
2022-08-27T01:11:51.230Z,16.40
2022-08-27T01:14:17.969Z,16.40
2022-08-27T01:16:44.987Z,16.40
2022-08-27T01:19:11.770Z,16.40
2022-08-27T01:21:38.568Z,16.40
2022-08-27T01:24:05.343Z,16.30
2022-08-27T01:26:32.069Z,16.30
2022-08-27T01:28:58.922Z,16.30
2022-08-27T01:31:25.706Z,16.30
2022-08-27T01:33:52.674Z,16.20
2022-08-27T01:36:19.427Z,16.20
2022-08-27T01:38:46.197Z,16.20
2022-08-27T01:41:15.377Z,16.10
2022-08-27T01:43:42.300Z,16.10
2022-08-27T01:46:09.090Z,16.00
2022-08-27T01:48:35.812Z,15.90
2022-08-27T01:51:02.598Z,15.80
2022-08-27T01:53:29.347Z,15.80
2022-08-27T01:55:56.122Z,15.80
2022-08-27T01:58:22.883Z,15.90
2022-08-27T02:00:51.932Z,15.90
2022-08-27T02:03:23.320Z,15.80
2022-08-27T02:05:50.067Z,15.80
2022-08-27T02:08:17.634Z,15.80
2022-08-27T02:10:44.436Z,15.80
2022-08-27T02:13:12.947Z,15.80
2022-08-27T02:15:39.679Z,15.70
2022-08-27T02:18:06.447Z,15.70
2022-08-27T02:20:33.194Z,15.70
2022-08-27T02:22:59.937Z,15.70
2022-08-27T02:25:27.755Z,15.70
2022-08-27T02:28:00.335Z,15.60
2022-08-27T02:30:27.600Z,15.60
2022-08-27T02:32:54.322Z,15.60
2022-08-27T02:35:21.176Z,15.60
2022-08-27T02:37:47.937Z,15.50
2022-08-27T02:40:17.352Z,15.50
2022-08-27T02:42:44.597Z,15.50
2022-08-27T02:45:11.328Z,15.60
2022-08-27T02:47:38.070Z,15.50
2022-08-27T02:50:04.932Z,15.50
2022-08-27T02:52:31.752Z,15.50
2022-08-27T02:54:58.508Z,15.50
2022-08-27T02:57:25.480Z,15.50
2022-08-27T02:59:52.644Z,15.50
2022-08-27T03:02:19.574Z,15.50
2022-08-27T03:04:46.391Z,15.50
2022-08-27T03:07:18.784Z,15.50
2022-08-27T03:09:45.907Z,15.60
2022-08-27T03:12:12.959Z,15.50
2022-08-27T03:14:39.723Z,15.50
2022-08-27T03:17:25.310Z,15.50
2022-08-27T03:19:52.150Z,15.50
2022-08-27T03:22:18.903Z,15.50
2022-08-27T03:24:46.207Z,15.50
2022-08-27T03:27:12.942Z,15.40
2022-08-27T03:29:39.753Z,15.40
2022-08-27T03:32:06.985Z,15.50
2022-08-27T03:34:33.737Z,15.50
2022-08-27T03:37:01.493Z,15.50
2022-08-27T03:39:28.277Z,15.50
2022-08-27T03:41:55.844Z,15.50
2022-08-27T03:44:22.631Z,15.50
2022-08-27T03:46:49.390Z,15.40
2022-08-27T03:49:16.171Z,15.40
2022-08-27T03:51:47.174Z,15.40
2022-08-27T03:54:13.909Z,15.30
2022-08-27T03:56:41.695Z,15.40
2022-08-27T03:59:08.572Z,15.30
2022-08-27T04:01:36.118Z,15.30
2022-08-27T04:04:02.948Z,15.30
2022-08-27T04:06:29.791Z,15.30
2022-08-27T04:08:56.535Z,15.30
2022-08-27T04:11:23.461Z,15.20
2022-08-27T04:13:50.279Z,15.20
2022-08-27T04:16:17.145Z,15.20
2022-08-27T04:18:43.958Z,15.20
2022-08-27T04:21:11.412Z,15.20
2022-08-27T04:23:38.687Z,15.20
2022-08-27T04:26:05.664Z,15.10
2022-08-27T04:28:35.244Z,15.20
2022-08-27T04:31:05.532Z,15.10
2022-08-27T04:33:32.547Z,15.10
2022-08-27T04:35:59.288Z,15.20
2022-08-27T04:38:26.041Z,15.20
2022-08-27T04:41:11.397Z,15.10
2022-08-27T04:43:38.225Z,15.10
2022-08-27T04:46:05.088Z,15.10
2022-08-27T04:48:31.891Z,15.10
2022-08-27T04:50:58.621Z,15.10
2022-08-27T04:53:25.458Z,15.10
2022-08-27T04:55:52.233Z,15.10
2022-08-27T04:58:19.045Z,15.10
2022-08-27T05:00:46.346Z,15.10
2022-08-27T05:03:13.387Z,15.10
2022-08-27T05:05:42.696Z,15.10
2022-08-27T05:08:10.797Z,15.00
2022-08-27T05:10:37.682Z,15.10
2022-08-27T05:13:04.472Z,15.10
2022-08-27T05:15:31.371Z,15.20
2022-08-27T05:18:00.749Z,15.10
2022-08-27T05:20:27.617Z,15.10
2022-08-27T05:22:54.715Z,15.10
2022-08-27T05:25:21.600Z,15.20
2022-08-27T05:27:48.339Z,15.20
2022-08-27T05:30:15.110Z,15.30
2022-08-27T05:32:42.159Z,15.30
2022-08-27T05:35:11.107Z,15.40
2022-08-27T05:37:40.732Z,15.40
2022-08-27T05:40:07.551Z,15.40
2022-08-27T05:42:34.502Z,15.40
2022-08-27T05:45:01.262Z,15.40
2022-08-27T05:47:28.190Z,15.40
2022-08-27T05:49:55.086Z,15.40
2022-08-27T05:52:22.005Z,15.40
2022-08-27T05:54:48.777Z,15.50
2022-08-27T05:57:15.510Z,15.50
2022-08-27T06:00:01.261Z,15.60
2022-08-27T06:02:28.487Z,15.60
2022-08-27T06:04:55.451Z,15.70
2022-08-27T06:07:22.297Z,15.80
2022-08-27T06:09:49.076Z,15.80
2022-08-27T06:12:15.878Z,15.80
2022-08-27T06:14:42.600Z,15.90
2022-08-27T06:17:09.330Z,16.00
2022-08-27T06:19:36.588Z,16.00
2022-08-27T06:22:10.458Z,16.10
2022-08-27T06:24:39.069Z,16.10
2022-08-27T06:27:06.152Z,16.10
2022-08-27T06:29:35.399Z,16.20
2022-08-27T06:32:02.237Z,16.30
2022-08-27T06:34:29.061Z,16.20
2022-08-27T06:36:55.811Z,16.30
2022-08-27T06:39:22.585Z,16.30
2022-08-27T06:41:53.122Z,16.30
2022-08-27T06:44:22.172Z,16.40
2022-08-27T06:46:48.896Z,16.40
2022-08-27T06:49:15.699Z,16.50
2022-08-27T06:51:42.744Z,16.50
2022-08-27T06:54:09.597Z,16.50
2022-08-27T06:56:36.462Z,16.60
2022-08-27T06:59:03.200Z,16.70
2022-08-27T07:01:31.764Z,16.80
2022-08-27T07:03:58.635Z,16.80
2022-08-27T07:06:25.397Z,16.90
2022-08-27T07:08:53.173Z,16.90
2022-08-27T07:11:20.553Z,17.00
2022-08-27T07:13:47.506Z,17.10
2022-08-27T07:16:14.436Z,17.20
2022-08-27T07:18:41.287Z,17.20
2022-08-27T07:21:08.174Z,17.30
2022-08-27T07:23:34.929Z,17.40
2022-08-27T07:26:01.688Z,17.50
2022-08-27T07:28:28.470Z,17.40
2022-08-27T07:30:55.295Z,17.50
2022-08-27T07:33:22.209Z,17.50
2022-08-27T07:35:49.550Z,17.50
2022-08-27T07:38:16.425Z,17.50
2022-08-27T07:40:43.200Z,17.60
2022-08-27T07:43:28.422Z,17.60
2022-08-27T07:45:57.253Z,17.50
2022-08-27T07:48:24.102Z,17.50
2022-08-27T07:50:51.457Z,17.40
2022-08-27T07:53:18.239Z,17.30
2022-08-27T07:55:45.537Z,17.40
2022-08-27T07:58:16.804Z,17.40
2022-08-27T08:00:45.240Z,17.40
2022-08-27T08:03:12.002Z,17.40
2022-08-27T08:05:38.778Z,17.40
2022-08-27T08:08:05.599Z,17.40
2022-08-27T08:10:35.518Z,17.40
2022-08-27T08:13:02.423Z,17.50
2022-08-27T08:15:29.526Z,17.50
2022-08-27T08:17:56.263Z,17.50
2022-08-27T08:20:35.900Z,17.60
2022-08-27T08:23:10.558Z,17.60
2022-08-27T08:25:38.731Z,17.60
2022-08-27T08:28:05.638Z,17.70
2022-08-27T08:30:35.552Z,17.80
2022-08-27T08:33:02.483Z,17.80
2022-08-27T08:35:35.073Z,17.90
2022-08-27T08:38:07.335Z,17.90
2022-08-27T08:40:34.229Z,18.00
2022-08-27T08:43:01.140Z,18.00
2022-08-27T08:45:28.215Z,18.10
2022-08-27T08:47:56.650Z,18.10
2022-08-27T08:50:23.397Z,18.20
2022-08-27T08:52:50.161Z,18.30
2022-08-27T08:55:16.930Z,18.30
2022-08-27T08:57:43.706Z,18.40
2022-08-27T09:00:13.587Z,18.50
2022-08-27T09:02:40.414Z,18.50
2022-08-27T09:05:08.859Z,18.50
2022-08-27T09:07:35.646Z,18.70
2022-08-27T09:10:03.601Z,18.70
2022-08-27T09:12:30.830Z,18.80
2022-08-27T09:14:57.630Z,18.90
2022-08-27T09:17:24.403Z,19.00
2022-08-27T09:19:52.610Z,19.00
2022-08-27T09:22:19.724Z,19.00
2022-08-27T09:24:46.498Z,19.10
2022-08-27T09:27:14.856Z,19.20
2022-08-27T09:29:41.584Z,19.20
2022-08-27T09:32:08.687Z,19.30
2022-08-27T09:34:35.539Z,19.30
2022-08-27T09:37:02.368Z,19.40
2022-08-27T09:39:29.379Z,19.50
2022-08-27T09:41:56.185Z,19.50
2022-08-27T09:44:23.176Z,19.60
2022-08-27T09:46:49.922Z,19.60
2022-08-27T09:49:17.555Z,19.60
2022-08-27T09:51:44.287Z,19.70
2022-08-27T09:54:11.031Z,19.70
2022-08-27T09:56:37.870Z,19.80
2022-08-27T09:59:04.662Z,19.80
2022-08-27T10:01:31.434Z,19.90
2022-08-27T10:03:58.295Z,20.00
2022-08-27T10:06:25.066Z,20.00
2022-08-27T10:08:51.827Z,20.00
2022-08-27T10:11:18.583Z,20.00
2022-08-27T10:13:45.425Z,20.10
2022-08-27T10:16:12.204Z,20.20
2022-08-27T10:18:41.385Z,20.20
2022-08-27T10:21:08.160Z,20.30
2022-08-27T10:23:35.438Z,20.30
2022-08-27T10:26:02.183Z,20.40
2022-08-27T10:28:28.947Z,20.40
2022-08-27T10:30:55.732Z,20.40
2022-08-27T10:33:23.651Z,20.40
2022-08-27T10:35:54.637Z,20.60
2022-08-27T10:38:21.971Z,20.70
2022-08-27T10:40:48.707Z,20.80
2022-08-27T10:43:15.557Z,20.80
2022-08-27T10:45:42.882Z,20.90
2022-08-27T10:48:09.921Z,21.00
2022-08-27T10:50:36.861Z,21.10
2022-08-27T10:53:03.720Z,21.20
2022-08-27T10:55:30.496Z,21.20
2022-08-27T10:58:01.014Z,21.30
2022-08-27T11:00:27.984Z,21.40
2022-08-27T11:02:55.218Z,21.40
2022-08-27T11:05:22.003Z,21.40
2022-08-27T11:07:48.784Z,21.50
2022-08-27T11:10:15.703Z,21.70
2022-08-27T11:12:47.925Z,21.80
2022-08-27T11:15:14.656Z,21.90
2022-08-27T11:17:41.445Z,21.90
2022-08-27T11:20:09.147Z,21.90
2022-08-27T11:22:36.105Z,21.80
2022-08-27T11:25:02.927Z,21.80
2022-08-27T11:27:38.744Z,21.80
2022-08-27T11:30:05.514Z,21.80
2022-08-27T11:32:32.265Z,21.80
2022-08-27T11:34:59.047Z,21.90
2022-08-27T11:37:25.862Z,22.10
2022-08-27T11:39:52.748Z,22.10
2022-08-27T11:42:19.537Z,22.20
2022-08-27T11:44:46.844Z,22.20
2022-08-27T11:47:13.678Z,22.30
2022-08-27T11:49:40.410Z,22.40
2022-08-27T11:52:09.974Z,22.50
2022-08-27T11:54:36.834Z,22.70
2022-08-27T11:57:03.560Z,22.80
2022-08-27T11:59:30.329Z,22.70
2022-08-27T12:01:57.321Z,22.70
2022-08-27T12:04:24.867Z,22.80
2022-08-27T12:06:51.872Z,22.80
2022-08-27T12:09:19.496Z,22.90
2022-08-27T12:11:46.272Z,23.00
2022-08-27T12:14:14.807Z,23.00
2022-08-27T12:16:41.965Z,23.00
2022-08-27T12:19:09.020Z,23.00
2022-08-27T12:21:35.832Z,22.90
2022-08-27T12:24:02.636Z,22.90
2022-08-27T12:26:29.455Z,22.90
2022-08-27T12:28:56.189Z,22.80
2022-08-27T12:31:23.040Z,22.90
2022-08-27T12:33:49.895Z,22.90
2022-08-27T12:36:21.238Z,23.00
2022-08-27T12:38:54.995Z,23.00
2022-08-27T12:41:21.716Z,23.20
2022-08-27T12:43:48.512Z,23.40
2022-08-27T12:46:15.919Z,23.50
2022-08-27T12:48:42.801Z,23.50
2022-08-27T12:51:09.577Z,23.50
2022-08-27T12:53:36.399Z,23.40
2022-08-27T12:56:03.105Z,23.30
2022-08-27T12:58:30.155Z,23.20
2022-08-27T13:00:58.846Z,23.00
2022-08-27T13:03:26.194Z,22.90
2022-08-27T13:05:57.480Z,22.70
2022-08-27T13:08:24.295Z,22.70
2022-08-27T13:10:51.085Z,22.70
2022-08-27T13:13:17.915Z,22.70
2022-08-27T13:15:44.856Z,22.80
2022-08-27T13:18:12.174Z,22.90
2022-08-27T13:20:39.281Z,23.00
2022-08-27T13:23:06.052Z,23.20
2022-08-27T13:25:33.369Z,23.40
2022-08-27T13:28:03.197Z,23.50
2022-08-27T13:30:35.673Z,23.50
2022-08-27T13:33:03.252Z,23.40
2022-08-27T13:35:32.465Z,23.30
2022-08-27T13:37:59.241Z,23.20
2022-08-27T13:40:28.841Z,23.10
2022-08-27T13:42:55.739Z,23.00
2022-08-27T13:45:22.560Z,23.00
2022-08-27T13:47:49.360Z,23.00
2022-08-27T13:50:16.125Z,23.10
2022-08-27T13:53:01.662Z,23.20
2022-08-27T13:55:28.658Z,23.30
2022-08-27T13:57:55.755Z,23.40
2022-08-27T14:00:22.615Z,23.50
2022-08-27T14:02:55.948Z,23.70
2022-08-27T14:05:23.365Z,23.70
2022-08-27T14:07:50.184Z,23.80
2022-08-27T14:10:17.855Z,23.90
2022-08-27T14:12:44.619Z,23.80
2022-08-27T14:15:11.371Z,23.70
2022-08-27T14:17:38.300Z,23.80
2022-08-27T14:20:05.217Z,23.90
2022-08-27T14:22:34.353Z,23.90
2022-08-27T14:25:01.204Z,24.00
2022-08-27T14:27:28.026Z,24.10
2022-08-27T14:29:55.595Z,24.30
2022-08-27T14:32:22.460Z,24.40
2022-08-27T14:34:49.588Z,24.50
2022-08-27T14:37:16.319Z,24.50
2022-08-27T14:39:43.535Z,24.30
2022-08-27T14:42:11.809Z,24.10
2022-08-27T14:44:38.715Z,23.90
2022-08-27T14:47:05.514Z,23.80
2022-08-27T14:49:36.528Z,23.60
2022-08-27T14:52:03.320Z,23.40
2022-08-27T14:54:33.362Z,23.30
2022-08-27T14:57:00.493Z,23.30
2022-08-27T14:59:27.315Z,23.20
2022-08-27T15:01:54.547Z,23.30
2022-08-27T15:04:21.426Z,23.40
2022-08-27T15:06:48.447Z,23.40
2022-08-27T15:09:15.299Z,23.50
2022-08-27T15:11:42.081Z,23.40
2022-08-27T15:14:08.835Z,23.50
2022-08-27T15:16:35.677Z,23.60
2022-08-27T15:19:02.415Z,23.70
2022-08-27T15:21:29.163Z,23.80
2022-08-27T15:23:55.938Z,24.00
2022-08-27T15:26:23.143Z,24.10
2022-08-27T15:28:50.580Z,24.30
2022-08-27T15:31:17.537Z,24.40
2022-08-27T15:33:45.556Z,24.30
2022-08-27T15:36:12.471Z,24.20
2022-08-27T15:38:39.229Z,24.20
2022-08-27T15:41:06.013Z,24.10
2022-08-27T15:43:32.760Z,24.00
2022-08-27T15:45:59.612Z,23.90
2022-08-27T15:48:26.424Z,23.80
2022-08-27T15:50:53.244Z,23.80
2022-08-27T15:53:19.947Z,23.70
2022-08-27T15:55:46.765Z,23.60
2022-08-27T15:58:13.688Z,23.60
2022-08-27T16:00:40.429Z,23.60
2022-08-27T16:03:07.232Z,23.70
2022-08-27T16:05:34.020Z,23.70
2022-08-27T16:08:00.755Z,23.60
2022-08-27T16:10:27.935Z,23.60
2022-08-27T16:12:54.705Z,23.50
2022-08-27T16:15:21.440Z,23.50
2022-08-27T16:17:48.212Z,23.40
2022-08-27T16:20:15.063Z,23.30
2022-08-27T16:22:42.067Z,23.30
2022-08-27T16:25:08.781Z,23.40
2022-08-27T16:27:36.032Z,23.60
2022-08-27T16:30:02.802Z,24.10
2022-08-27T16:32:29.541Z,24.60
2022-08-27T16:34:56.318Z,25.10
2022-08-27T16:37:23.054Z,25.40
2022-08-27T16:39:49.763Z,25.50
2022-08-27T16:42:16.472Z,25.60
2022-08-27T16:44:43.174Z,25.80
2022-08-27T16:47:09.902Z,26.00
2022-08-27T16:49:55.549Z,26.20
2022-08-27T16:52:23.853Z,26.30
2022-08-27T16:54:50.634Z,26.40
2022-08-27T16:57:17.345Z,26.40
2022-08-27T16:59:44.119Z,26.40
2022-08-27T17:02:10.920Z,26.30
2022-08-27T17:04:42.093Z,25.90
2022-08-27T17:07:09.892Z,25.40
2022-08-27T17:09:36.602Z,25.20
2022-08-27T17:12:05.165Z,24.80
2022-08-27T17:14:31.876Z,24.40
2022-08-27T17:16:58.619Z,24.10
2022-08-27T17:19:26.211Z,23.70
2022-08-27T17:21:54.965Z,23.50
2022-08-27T17:24:21.852Z,23.60
2022-08-27T17:26:48.571Z,23.90
2022-08-27T17:29:15.329Z,24.10
2022-08-27T17:31:42.049Z,24.30
2022-08-27T17:34:08.792Z,24.50
2022-08-27T17:36:35.508Z,24.50
2022-08-27T17:39:05.576Z,24.40
2022-08-27T17:41:34.135Z,24.40
2022-08-27T17:44:01.237Z,24.50
2022-08-27T17:46:28.053Z,24.50
2022-08-27T17:48:54.784Z,24.40
2022-08-27T17:51:21.519Z,24.30
2022-08-27T17:53:48.284Z,23.90
2022-08-27T17:56:15.022Z,23.60
2022-08-27T17:58:41.722Z,23.20
2022-08-27T18:01:11.443Z,22.90
2022-08-27T18:03:47.511Z,22.60
2022-08-27T18:06:14.674Z,22.50
2022-08-27T18:08:41.364Z,22.30
2022-08-27T18:11:08.082Z,22.20
2022-08-27T18:13:37.288Z,22.10
2022-08-27T18:16:04.102Z,22.00
2022-08-27T18:18:30.809Z,21.90
2022-08-27T18:20:57.937Z,21.80
2022-08-27T18:23:24.717Z,21.70
2022-08-27T18:25:52.085Z,21.60
2022-08-27T18:28:18.850Z,21.40
2022-08-27T18:30:45.761Z,21.40
2022-08-27T18:33:12.863Z,21.30
2022-08-27T18:35:39.772Z,21.20
2022-08-27T18:38:06.639Z,21.20
2022-08-27T18:40:33.428Z,21.00
2022-08-27T18:43:00.246Z,21.00
2022-08-27T18:45:26.994Z,20.90
2022-08-27T18:47:55.369Z,20.90
2022-08-27T18:50:22.205Z,20.80
2022-08-27T18:52:48.905Z,20.70
2022-08-27T18:55:15.636Z,20.60
2022-08-27T18:57:43.051Z,20.60
2022-08-27T19:00:09.789Z,20.60
2022-08-27T19:02:36.754Z,20.50
2022-08-27T19:05:04.900Z,20.40
2022-08-27T19:07:32.192Z,20.40
2022-08-27T19:09:58.919Z,20.30
2022-08-27T19:12:25.647Z,20.30
2022-08-27T19:14:52.369Z,20.20
2022-08-27T19:17:19.090Z,20.10
2022-08-27T19:19:45.782Z,20.10
2022-08-27T19:22:12.477Z,20.00
2022-08-27T19:24:40.106Z,19.90
2022-08-27T19:27:07.180Z,19.90
2022-08-27T19:29:33.873Z,19.80
2022-08-27T19:32:00.624Z,19.80
2022-08-27T19:34:27.384Z,19.80
2022-08-27T19:36:54.079Z,19.70
2022-08-27T19:39:20.831Z,19.70
2022-08-27T19:41:47.568Z,19.70
2022-08-27T19:44:14.292Z,19.60
2022-08-27T19:46:41.176Z,19.60
2022-08-27T19:49:07.946Z,19.60
2022-08-27T19:51:34.689Z,19.50
2022-08-27T19:54:01.453Z,19.50
2022-08-27T19:56:28.900Z,19.40
2022-08-27T19:58:59.715Z,19.40
2022-08-27T20:01:30.318Z,19.40
2022-08-27T20:03:57.138Z,19.30
2022-08-27T20:06:26.113Z,19.30
2022-08-27T20:08:52.826Z,19.30
2022-08-27T20:11:22.091Z,19.20
2022-08-27T20:13:50.644Z,19.20
2022-08-27T20:16:17.682Z,19.10
2022-08-27T20:18:44.954Z,19.10
2022-08-27T20:21:11.740Z,19.10
2022-08-27T20:23:38.491Z,19.10
2022-08-27T20:26:05.195Z,19.00
2022-08-27T20:28:40.278Z,19.00
2022-08-27T20:31:07.414Z,18.90
2022-08-27T20:33:34.254Z,18.90
2022-08-27T20:36:01.500Z,18.90
2022-08-27T20:38:28.230Z,18.80
2022-08-27T20:40:54.955Z,18.80
2022-08-27T20:43:21.751Z,18.80
2022-08-27T20:45:48.532Z,18.70
2022-08-27T20:48:15.267Z,18.70
2022-08-27T20:50:42.097Z,18.70
2022-08-27T20:53:09.109Z,18.60
2022-08-27T20:55:35.860Z,18.60
2022-08-27T20:58:21.384Z,18.60
2022-08-27T21:00:48.341Z,18.50
2022-08-27T21:03:15.212Z,18.50
2022-08-27T21:05:43.656Z,18.50
2022-08-27T21:08:10.453Z,18.40
2022-08-27T21:10:37.314Z,18.30
2022-08-27T21:13:05.727Z,18.30
2022-08-27T21:15:33.451Z,18.20
2022-08-27T21:18:00.323Z,18.20
2022-08-27T21:20:27.039Z,18.20
2022-08-27T21:22:56.045Z,18.10
2022-08-27T21:25:24.650Z,18.10
2022-08-27T21:27:51.369Z,18.00
2022-08-27T21:30:18.103Z,18.00
2022-08-27T21:32:44.851Z,18.00
2022-08-27T21:35:11.755Z,17.90
2022-08-27T21:37:38.528Z,17.90
2022-08-27T21:40:05.448Z,17.90
2022-08-27T21:42:32.171Z,17.90
2022-08-27T21:44:58.871Z,17.80
2022-08-27T21:47:25.716Z,17.80
2022-08-27T21:49:52.585Z,17.80
2022-08-27T21:52:19.356Z,17.80
2022-08-27T21:54:46.061Z,17.70
2022-08-27T21:57:15.539Z,17.70
2022-08-27T21:59:42.319Z,17.70
2022-08-27T22:02:28.776Z,17.60
2022-08-27T22:04:55.866Z,17.60
2022-08-27T22:07:24.321Z,17.60
2022-08-27T22:09:51.077Z,17.60
2022-08-27T22:12:17.831Z,17.50
2022-08-27T22:14:44.536Z,17.40
2022-08-27T22:17:15.605Z,17.30
2022-08-27T22:19:42.390Z,17.20
2022-08-27T22:22:09.146Z,17.20
2022-08-27T22:24:35.870Z,17.20
2022-08-27T22:27:02.641Z,17.20
2022-08-27T22:29:30.692Z,17.20
2022-08-27T22:31:57.649Z,17.20
2022-08-27T22:34:24.389Z,17.10
2022-08-27T22:36:51.141Z,17.00
2022-08-27T22:39:17.837Z,17.00
2022-08-27T22:41:45.297Z,17.00
2022-08-27T22:44:13.396Z,17.00
2022-08-27T22:46:40.292Z,17.00
2022-08-27T22:49:07.079Z,17.00
2022-08-27T22:51:33.788Z,17.00
2022-08-27T22:54:00.635Z,17.00
2022-08-27T22:56:27.333Z,16.90
2022-08-27T22:58:54.037Z,16.90
2022-08-27T23:01:20.798Z,16.80
2022-08-27T23:03:47.885Z,16.70
2022-08-27T23:06:14.648Z,16.70
2022-08-27T23:08:41.387Z,16.70
2022-08-27T23:11:08.095Z,16.60
2022-08-27T23:13:34.801Z,16.60
2022-08-27T23:16:01.756Z,16.70
2022-08-27T23:18:28.579Z,16.60
2022-08-27T23:20:55.634Z,16.60
2022-08-27T23:23:22.382Z,16.50
2022-08-27T23:26:11.224Z,16.50
2022-08-27T23:28:37.995Z,16.50
2022-08-27T23:31:04.772Z,16.50
2022-08-27T23:33:31.506Z,16.40
2022-08-27T23:35:58.254Z,16.40
2022-08-27T23:38:24.982Z,16.30
2022-08-27T23:40:52.337Z,16.30
2022-08-27T23:43:19.141Z,16.30
2022-08-27T23:45:46.056Z,16.20
2022-08-27T23:48:13.056Z,16.20
2022-08-27T23:50:40.801Z,16.20
2022-08-27T23:53:07.617Z,16.10
2022-08-27T23:55:34.358Z,16.10
2022-08-27T23:58:01.460Z,16.10
